< Typhoon 201115 2011 Season Typhoon 201117 >
Typhoon 201116 (SONCA)
General InformationTrack Information on Google MapsDetailed Wind InformationAccess Analytics MapList of All Images || NewsDisaster Info.WeblogTrackbackTyphoon FrontTwiphoonTyphoon Now!Typhoon ImaginationResourceGoogle EarthGE AnimationAtom FeedGeoJSON
Detalied Best Track (Time Zone = UTC)
Year Month Day Hour Lat. Long. Pressure (hPa) Wind (kt) Class Image Chart
2011 9 14 12 20.6 154.4 1010 0 2 Image Chart
2011 9 14 18 21.0 154.9 1008 0 2 Image Chart
2011 9 15 00 21.4 155.1 1006 0 2 Image Chart
2011 9 15 06 22.1 155.2 1004 35 3 Image Chart
2011 9 15 12 22.5 154.8 1004 35 3 Image Chart
2011 9 15 18 23.0 154.1 1004 35 3 Image Chart
2011 9 16 00 22.8 152.8 1002 40 3 Image Chart
2011 9 16 06 23.0 151.5 1000 40 3 Image Chart
2011 9 16 12 23.1 150.2 1000 40 3 Image Chart
2011 9 16 18 23.3 148.9 1000 40 3 Image Chart
2011 9 17 00 24.6 147.7 996 45 3 Image Chart
2011 9 17 06 25.6 146.0 990 50 4 Image Chart
2011 9 17 12 26.4 144.4 985 55 4 Image Chart
2011 9 17 18 27.4 143.4 985 55 4 Image Chart
2011 9 18 00 28.7 142.7 980 60 4 Image Chart
2011 9 18 06 30.2 142.5 975 65 5 Image Chart
2011 9 18 12 31.7 142.5 975 65 5 Image Chart
2011 9 18 18 33.1 142.9 975 65 5 Image Chart
2011 9 19 00 34.6 144.3 970 70 5 Image Chart
2011 9 19 06 36.0 146.1 970 70 5 Image Chart
2011 9 19 12 37.2 148.4 970 70 5 Image Chart
2011 9 19 18 38.6 151.5 970 70 5 Image Chart
2011 9 20 00 39.8 155.4 975 65 5 Image Chart
2011 9 20 06 40.7 160.2 980 60 4 Image Chart
2011 9 20 12 42.0 165.0 990 0 6 Image Chart
2011 9 20 18 42.6 169.4 994 0 6 Image Chart
2011 9 21 00 43.1 175.1 996 0 6 Image Chart
2011 9 21 06 43.3 180.3 998 0 6 Image Chart
Japan Meteorological Agency Best Track Data | Correction Date : 2011-11-04
< Typhoon 201115 2011 Season Typhoon 201117 >

Help